FW0479 Weather Reports


Display with metric or nautical units.
time (UTC)temp
F
wind
direction
speed
MPH
gust
MPH
rain 1hr
in
rain 24hr
in
rain mn
in
humidity
%
barometer
mb
20211027194122 70 95 2.0 3.0 0.00 0.00 0.00 49 1011.5
20211027193122 70 92 2.0 4.0 0.00 0.00 0.00 51 1011.6
20211027192123 71 256 3.0 6.0 0.00 0.00 0.00 48 1011.6
20211027191122 72 247 3.0 6.0 0.00 0.00 0.00 47 1011.7
20211027190122 72 176 3.0 6.0 0.00 0.00 0.00 47 1011.7
20211027185122 72 106 3.0 4.0 0.00 0.00 0.00 47 1011.8
20211027184122 73 322 3.0 4.0 0.00 0.00 0.00 46 1011.9
20211027183122 72 46 2.0 5.0 0.00 0.00 0.00 46 1012.3
20211027182122 72 312 3.0 5.0 0.00 0.00 0.00 48 1012.3
20211027181123 71 64 3.0 4.0 0.00 0.00 0.00 47 1012.3
20211027180122 70 285 3.0 7.0 0.00 0.00 0.00 48 1012.4
20211027175121 69 271 4.0 7.0 0.00 0.00 0.00 48 1012.4
20211027174122 70 136 2.0 5.0 0.00 0.00 0.00 47 1012.5
20211027173121 69 82 2.0 4.0 0.00 0.00 0.00 49 1012.8
20211027172121 68 82 2.0 3.0 0.00 0.00 0.00 48 1012.8
20211027171122 68 7 3.0 6.0 0.00 0.00 0.00 49 1012.8
20211027170121 66 282 3.0 7.0 0.00 0.00 0.00 51 1013.0
20211027165123 66 292 4.0 8.0 0.00 0.00 0.00 51 1013.4
20211027164122 64 306 3.0 6.0 0.00 0.00 0.00 52 1013.5
20211027163123 63 267 3.0 8.0 0.00 0.00 0.00 54 1013.6
20211027162121 61 285 4.0 7.0 0.00 0.00 0.00 55 1013.6
20211027161121 60 288 5.0 8.0 0.00 0.00 0.00 56 1013.7
20211027160122 59 266 4.0 7.0 0.00 0.00 0.00 58 1013.9
20211027155121 59 303 3.0 6.0 0.00 0.00 0.00 56 1013.9
20211027154121 58 292 4.0 6.0 0.00 0.00 0.00 58 1014.0
20211027153121 58 281 5.0 8.0 0.00 0.00 0.00 57 1014.0
20211027152121 57 76 2.0 6.0 0.00 0.00 0.00 59 1014.0
20211027151122 56 277 5.0 7.0 0.00 0.00 0.00 58 1014.0
20211027150121 56 254 3.0 6.0 0.00 0.00 0.00 60 1014.0
20211027145122 55 296 4.0 9.0 0.00 0.00 0.00 59 1014.1
20211027144122 54 303 4.0 8.0 0.00 0.00 0.00 60 1014.2
20211027143121 54 286 5.0 8.0 0.00 0.00 0.00 61 1014.0
20211027142122 53 284 5.0 8.0 0.00 0.00 0.00 61 1014.0
20211027141122 52 279 5.0 9.0 0.00 0.00 0.00 62 1013.9
20211027140122 52 299 5.0 10.0 0.00 0.00 0.00 63 1013.8
20211027135122 51 291 4.0 8.0 0.00 0.00 0.00 63 1013.6
20211027134122 50 289 5.0 8.0 0.00 0.00 0.00 65 1013.5
20211027133122 49 274 5.0 7.0 0.00 0.00 0.00 67 1013.4
20211027132122 49 283 5.0 8.0 0.00 0.00 0.00 69 1013.4
20211027131122 48 286 5.0 7.0 0.00 0.00 0.00 72 1013.4
20211027130122 46 291 4.0 6.0 0.00 0.00 0.00 77 1013.6
20211027125123 44 276 2.0 4.0 0.00 0.00 0.00 81 1013.3
20211027124122 43 235 1.0 2.0 0.00 0.00 0.00 83 1013.1
20211027123122 43 273 2.0 3.0 0.00 0.00 0.00 84 1012.8
20211027122122 42 289 2.0 4.0 0.00 0.00 0.00 85 1012.8
20211027121122 42 264 0.0 2.0 0.00 0.00 0.00 85 1012.9
20211027120122 42 268 1.0 2.0 0.00 0.00 0.00 85 1012.6
20211027115122 41 312 1.0 3.0 0.00 0.00 0.00 85 1012.5
20211027114123 41 251 0.0 2.0 0.00 0.00 0.00 85 1012.3
20211027113122 41 267 1.0 3.0 0.00 0.00 0.00 85 1012.2
20211027112122 41 257 0.0 2.0 0.00 0.00 0.00 84 1012.2
20211027111122 42 237 1.0 2.0 0.00 0.00 0.00 84 1011.9
20211027110122 42 265 2.0 3.0 0.00 0.00 0.00 84 1012.0
20211027105122 42 244 1.0 3.0 0.00 0.00 0.00 84 1012.0
20211027104121 42 257 1.0 3.0 0.00 0.00 0.00 84 1011.9
20211027103122 42 265 2.0 3.0 0.00 0.00 0.00 83 1012.1
20211027102122 42 258 1.0 3.0 0.00 0.00 0.00 83 1012.1
20211027101123 42 242 0.0 3.0 0.00 0.00 0.00 83 1012.1
20211027100122 42 250 2.0 3.0 0.00 0.00 0.00 83 1011.9
20211027095122 43 358 0.0 2.0 0.00 0.00 0.00 82 1012.1
20211027094122 43 203 0.0 0.0 0.00 0.00 0.00 82 1012.0
20211027093122 44 199 1.0 2.0 0.00 0.00 0.00 81 1011.8
20211027092122 44 285 2.0 4.0 0.00 0.00 0.00 81 1011.8
20211027091121 44 285 3.0 4.0 0.00 0.00 0.00 81 1011.8
20211027090121 44 286 3.0 4.0 0.00 0.00 0.00 81 1011.6
20211027085122 44 280 2.0 4.0 0.00 0.00 0.00 80 1011.6
20211027084123 44 242 2.0 3.0 0.00 0.00 0.00 80 1011.6
20211027083122 44 279 2.0 3.0 0.00 0.00 0.00 80 1011.6
20211027082121 44 257 1.0 4.0 0.00 0.00 0.00 80 1011.6
20211027081121 45 249 2.0 3.0 0.00 0.00 0.00 79 1011.6
20211027080121 45 261 2.0 3.0 0.00 0.00 0.00 78 1011.8
20211027075121 45 272 2.0 3.0 0.00 0.00 0.00 78 1011.9
20211027074122 46 240 1.0 3.0 0.00 0.00 0.00 77 1011.8
20211027073122 46 196 0.0 2.0 0.00 0.00 0.00 75 1012.0
20211027072123 47 211 2.0 3.0 0.00 0.00 0.00 73 1012.0
20211027071121 48 292 2.0 4.0 0.00 0.00 0.00 72 1011.8
20211027070121 48 282 3.0 6.0 0.00 0.00 0.00 71 1011.7
20211027065122 49 274 3.0 6.0 0.00 0.00 0.00 70 1011.7
20211027064122 49 289 4.0 6.0 0.00 0.00 0.00 70 1011.7
20211027063121 49 276 4.0 7.0 0.00 0.00 0.00 70 1011.8
20211027062122 49 279 4.0 7.0 0.00 0.00 0.00 69 1011.8
20211027061122 49 294 3.0 6.0 0.00 0.00 0.00 69 1011.8
20211027060122 49 293 4.0 8.0 0.00 0.00 0.00 69 1011.6
20211027055121 49 288 3.0 6.0 0.00 0.00 0.00 69 1011.8
20211027054121 49 287 3.0 7.0 0.00 0.00 0.00 69 1011.6
20211027053122 49 287 4.0 7.0 0.00 0.00 0.00 69 1011.4
20211027052122 49 280 3.0 7.0 0.00 0.00 0.00 69 1011.4
20211027051122 49 267 4.0 8.0 0.00 0.00 0.00 69 1011.6
20211027050122 49 286 4.0 11.0 0.00 0.00 0.00 69 1011.3
20211027045122 50 299 4.0 7.0 0.00 0.00 0.00 69 1011.3
20211027044123 50 283 4.0 7.0 0.00 0.00 0.00 69 1011.2
20211027043122 50 271 4.0 9.0 0.00 0.00 0.00 69 1011.6
20211027042122 50 290 4.0 8.0 0.00 0.00 0.00 69 1011.6
20211027041122 50 282 4.0 9.0 0.00 0.00 0.00 68 1011.8
20211027040121 50 276 4.0 9.0 0.00 0.00 0.00 68 1011.8
20211027035122 50 288 4.0 10.0 0.00 0.00 0.00 68 1011.9
20211027034123 50 291 5.0 10.0 0.00 0.00 0.00 68 1012.1
20211027033123 50 297 5.0 8.0 0.00 0.00 0.00 68 1012.3
20211027032122 50 268 3.0 7.0 0.00 0.00 0.00 69 1012.3
20211027031121 50 308 2.0 4.0 0.00 0.00 0.00 68 1012.5
20211027030121 50 257 3.0 5.0 0.00 0.00 0.00 68 1012.7
20211027025122 51 327 3.0 7.0 0.00 0.00 0.00 67 1012.8
20211027024121 51 283 4.0 11.0 0.00 0.00 0.00 67 1012.9
20211027023123 51 290 4.0 9.0 0.00 0.00 0.00 68 1012.9
20211027022123 51 276 3.0 5.0 0.00 0.00 0.00 68 1012.9
20211027021123 52 303 3.0 6.0 0.00 0.00 0.00 67 1013.0
20211027020123 52 301 3.0 6.0 0.00 0.00 0.00 67 1012.9
20211027015122 53 295 3.0 7.0 0.00 0.00 0.00 66 1012.7
20211027014122 53 326 3.0 7.0 0.00 0.00 0.00 66 1012.5
20211027013122 53 283 3.0 6.0 0.00 0.00 0.00 65 1012.3
20211027012122 54 280 3.0 7.0 0.00 0.00 0.00 65 1012.3
20211027011123 54 264 4.0 10.0 0.00 0.00 0.00 65 1012.1
20211027010123 54 336 3.0 6.0 0.00 0.00 0.00 65 1011.9
20211027005123 55 88 2.0 4.0 0.00 0.00 0.00 64 1011.8
20211027004122 56 339 2.0 4.0 0.00 0.00 0.00 60 1011.5
20211027003122 56 289 4.0 9.0 0.00 0.00 0.00 59 1011.3
20211027002122 56 288 4.0 10.0 0.00 0.00 0.00 59 1011.3
20211027001122 57 273 3.0 5.0 0.00 0.00 0.00 59 1011.1
20211027000122 57 303 3.0 5.0 0.00 0.00 0.00 58 1010.9
20211026235122 58 310 4.0 7.0 0.00 0.00 0.00 57 1010.7
20211026234123 58 288 5.0 9.0 0.00 0.00 0.00 56 1010.5
20211026233123 58 295 4.0 10.0 0.00 0.00 0.00 57 1010.4
20211026232123 59 297 4.0 7.0 0.00 0.00 0.00 56 1010.4
20211026231121 59 288 4.0 6.0 0.00 0.00 0.00 56 1010.2
20211026230121 60 291 3.0 6.0 0.00 0.00 0.00 55 1010.3
20211026225121 60 285 3.0 10.0 0.00 0.00 0.00 54 1010.2
20211026224121 61 344 4.0 8.0 0.00 0.00 0.00 54 1010.2
20211026223121 62 266 4.0 9.0 0.00 0.00 0.00 52 1010.0
20211026222122 64 294 3.0 7.0 0.00 0.00 0.00 51 1010.0
20211026221121 65 26 4.0 9.0 0.00 0.00 0.00 49 1009.8
20211026220122 66 282 6.0 11.0 0.00 0.00 0.00 50 1009.7
20211026215122 66 284 6.0 10.0 0.00 0.00 0.00 49 1009.5
20211026214121 66 278 8.0 15.0 0.00 0.00 0.00 49 1009.3
20211026213122 67 279 9.0 12.0 0.00 0.00 0.00 49 1009.2
20211026212121 68 284 8.0 12.0 0.00 0.00 0.00 50 1009.2
20211026211123 69 295 8.0 12.0 0.00 0.00 0.00 48 1009.0
20211026210123 69 285 10.0 17.0 0.00 0.00 0.00 47 1008.6
20211026205121 71 286 8.0 14.0 0.00 0.00 0.00 47 1008.5
20211026204122 71 295 9.0 12.0 0.00 0.00 0.00 47 1008.4
20211026203122 71 318 6.0 13.0 0.00 0.00 0.00 47 1008.3
20211026202121 71 293 8.0 13.0 0.00 0.00 0.00 47 1008.3
20211026201122 71 275 9.0 14.0 0.00 0.00 0.00 48 1008.4
20211026200121 71 290 9.0 14.0 0.00 0.00 0.00 47 1008.2
20211026195123 71 280 9.0 15.0 0.00 0.00 0.00 47 1008.1